Aviation Digital Data Service (ADDS)

Output produced by METARs form (0301 UTC 22 April 2019)
found at http://www.aviationweather.gov/metar/data/
 
METAR text: OITL 220200Z 06017KT 4000 -SN PRFG BR BKN004 BKN025 M01/M01 Q1013
Conditions at: OITL (ARDABIL , IR) observed 0200 UTC 22 April 2019
Temperature: -1.0°C (30°F)
Dewpoint: -1.0°C (30°F) [RH = 100%]
Pressure (altimeter): 29.91 inches Hg (1013.0 mb)
Winds: from the ENE (60 degrees) at 20 MPH (17 knots; 8.7 m/s)
Visibility: 2.49 miles (4.01 km)
Ceiling: 400 feet AGL
Clouds: broken clouds at 400 feet AGL
broken clouds at 2500 feet AGL
Weather: -SN PRFG BR  (light snow, partial fog, mist)

METAR text: OITL 212351Z 05021KT 8000 -SN BKN004 BKN025 M00/M01 Q1014
Conditions at: OITL (ARDABIL , IR) observed 2351 UTC 21 April 2019
Temperature: 0.0°C (32°F)
Dewpoint: -1.0°C (30°F) [RH = 93%]
Pressure (altimeter): 29.94 inches Hg (1014.0 mb)
Winds: from the NE (50 degrees) at 24 MPH (21 knots; 10.8 m/s)
Visibility: 5 miles ( 8 km)
Ceiling: 400 feet AGL
Clouds: broken clouds at 400 feet AGL
broken clouds at 2500 feet AGL
Weather: -SN  (light snow)

METAR text: OITL 212250Z 06017KT 8000 VCFG SCT004 BKN025 M00/M01 Q1014 RESN
Conditions at: OITL (ARDABIL , IR) observed 2250 UTC 21 April 2019
Temperature: 0.0°C (32°F)
Dewpoint: -1.0°C (30°F) [RH = 93%]
Pressure (altimeter): 29.94 inches Hg (1014.0 mb)
Winds: from the ENE (60 degrees) at 20 MPH (17 knots; 8.7 m/s)
Visibility: 5 miles ( 8 km)
Ceiling: 2500 feet AGL
Clouds: scattered clouds at 400 feet AGL
broken clouds at 2500 feet AGL
Weather: VCFG  (fog in vicinity)

METAR text: OITL 212150Z 06017KT 6000 -SN BKN004 BKN025 M00/M01 Q1015
Conditions at: OITL (ARDABIL , IR) observed 2150 UTC 21 April 2019
Temperature: 0.0°C (32°F)
Dewpoint: -1.0°C (30°F) [RH = 93%]
Pressure (altimeter): 29.97 inches Hg (1015.0 mb)
Winds: from the ENE (60 degrees) at 20 MPH (17 knots; 8.7 m/s)
Visibility: 4 miles ( 6 km)
Ceiling: 400 feet AGL
Clouds: broken clouds at 400 feet AGL
broken clouds at 2500 feet AGL
Weather: -SN  (light snow)

METAR text: OITL 212054Z 06016KT 6000 -SN BKN004 BKN025 00/M00 Q1015
Conditions at: OITL (ARDABIL , IR) observed 2054 UTC 21 April 2019
Temperature: 0.0°C (32°F)
Dewpoint: 0.0°C (32°F) [RH = 100%]
Pressure (altimeter): 29.97 inches Hg (1015.0 mb)
Winds: from the ENE (60 degrees) at 18 MPH (16 knots; 8.2 m/s)
Visibility: 4 miles ( 6 km)
Ceiling: 400 feet AGL
Clouds: broken clouds at 400 feet AGL
broken clouds at 2500 feet AGL
Weather: -SN  (light snow)

METAR text: OITL 211953Z 06016KT 6000 -DZ BKN004 BKN020 00/M00 Q1015 RESN
Conditions at: OITL (ARDABIL , IR) observed 1953 UTC 21 April 2019
Temperature: 0.0°C (32°F)
Dewpoint: 0.0°C (32°F) [RH = 100%]
Pressure (altimeter): 29.97 inches Hg (1015.0 mb)
Winds: from the ENE (60 degrees) at 18 MPH (16 knots; 8.2 m/s)
Visibility: 4 miles ( 6 km)
Ceiling: 400 feet AGL
Clouds: broken clouds at 400 feet AGL
broken clouds at 2000 feet AGL
Weather: -DZ  (light drizzle)

METAR text: OITL 211850Z 06017KT 7000 -SN VCFG BKN003 BKN020 00/M00 Q1016
Conditions at: OITL (ARDABIL , IR) observed 1850 UTC 21 April 2019
Temperature: 0.0°C (32°F)
Dewpoint: 0.0°C (32°F) [RH = 100%]
Pressure (altimeter): 30.00 inches Hg (1016.0 mb)
Winds: from the ENE (60 degrees) at 20 MPH (17 knots; 8.7 m/s)
Visibility: 4 miles ( 7 km)
Ceiling: 300 feet AGL
Clouds: broken clouds at 300 feet AGL
broken clouds at 2000 feet AGL
Weather: -SN VCFG  (light snow, fog in vicinity)

METAR text: OITL 211751Z 07021KT 6000 -DZ PRFG BKN003 BKN020 M00/M01 Q1016
Conditions at: OITL (ARDABIL , IR) observed 1751 UTC 21 April 2019
Temperature: 0.0°C (32°F)
Dewpoint: -1.0°C (30°F) [RH = 93%]
Pressure (altimeter): 30.00 inches Hg (1016.0 mb)
Winds: from the ENE (70 degrees) at 24 MPH (21 knots; 10.8 m/s)
Visibility: 4 miles ( 6 km)
Ceiling: 300 feet AGL
Clouds: broken clouds at 300 feet AGL
broken clouds at 2000 feet AGL
Weather: -DZ PRFG  (light drizzle, partial fog)

METAR text: OITL 211500Z 07023KT 3000 -DZ PRFG BR BKN003 BKN020 00/M00 Q1015
Conditions at: OITL (ARDABIL , IR) observed 1500 UTC 21 April 2019
Temperature: 0.0°C (32°F)
Dewpoint: 0.0°C (32°F) [RH = 100%]
Pressure (altimeter): 29.97 inches Hg (1015.0 mb)
Winds: from the ENE (70 degrees) at 26 MPH (23 knots; 11.8 m/s)
Visibility: 1.86 miles (2.99 km)
Ceiling: 300 feet AGL
Clouds: broken clouds at 300 feet AGL
broken clouds at 2000 feet AGL
Weather: -DZ PRFG BR  (light drizzle, partial fog, mist)

METAR text: OITL 211430Z 06021KT 7000 2000SE PRFG BKN004 BKN025 01/M00 Q1015
Conditions at: OITL (ARDABIL , IR) observed 1430 UTC 21 April 2019
Temperature: 1.0°C (34°F)
Dewpoint: 0.0°C (32°F) [RH = 93%]
Pressure (altimeter): 29.97 inches Hg (1015.0 mb)
Winds: from the ENE (60 degrees) at 24 MPH (21 knots; 10.8 m/s)
Visibility: 4 miles ( 7 km)
Ceiling: 400 feet AGL
Clouds: broken clouds at 400 feet AGL
broken clouds at 2500 feet AGL
Weather: PRFG  (partial fog)

METAR text: OITL 211400Z 08019KT 8000 2500SE PRFG BKN004 BKN025 01/00 Q1015
Conditions at: OITL (ARDABIL , IR) observed 1400 UTC 21 April 2019
Temperature: 1.0°C (34°F)
Dewpoint: 0.0°C (32°F) [RH = 93%]
Pressure (altimeter): 29.97 inches Hg (1015.0 mb)
Winds: from the E (80 degrees) at 22 MPH (19 knots; 9.8 m/s)
Visibility: 5 miles ( 8 km)
Ceiling: 400 feet AGL
Clouds: broken clouds at 400 feet AGL
broken clouds at 2500 feet AGL
Weather: PRFG  (partial fog)

METAR text: OITL 211350Z 08019KT 8000 2500SE PRFG BKN004 BKN025 01/00 Q1015
Conditions at: OITL (ARDABIL , IR) observed 1350 UTC 21 April 2019
Temperature: 1.0°C (34°F)
Dewpoint: 0.0°C (32°F) [RH = 93%]
Pressure (altimeter): 29.97 inches Hg (1015.0 mb)
Winds: from the E (80 degrees) at 22 MPH (19 knots; 9.8 m/s)
Visibility: 5 miles ( 8 km)
Ceiling: 400 feet AGL
Clouds: broken clouds at 400 feet AGL
broken clouds at 2500 feet AGL
Weather: PRFG  (partial fog)

METAR text: OITL 211330Z 07017KT 8000 2500SE VCFG BKN005 BKN025 01/M00 Q1015
Conditions at: OITL (ARDABIL , IR) observed 1330 UTC 21 April 2019
Temperature: 1.0°C (34°F)
Dewpoint: 0.0°C (32°F) [RH = 93%]
Pressure (altimeter): 29.97 inches Hg (1015.0 mb)
Winds: from the ENE (70 degrees) at 20 MPH (17 knots; 8.7 m/s)
Visibility: 5 miles ( 8 km)
Ceiling: 500 feet AGL
Clouds: broken clouds at 500 feet AGL
broken clouds at 2500 feet AGL
Weather: VCFG  (fog in vicinity)

METAR text: OITL 211300Z 07019KT 8000 2500SE PRFG BKN006 BKN025 02/00 Q1015
Conditions at: OITL (ARDABIL , IR) observed 1300 UTC 21 April 2019
Temperature: 2.0°C (36°F)
Dewpoint: 0.0°C (32°F) [RH = 87%]
Pressure (altimeter): 29.97 inches Hg (1015.0 mb)
Winds: from the ENE (70 degrees) at 22 MPH (19 knots; 9.8 m/s)
Visibility: 5 miles ( 8 km)
Ceiling: 600 feet AGL
Clouds: broken clouds at 600 feet AGL
broken clouds at 2500 feet AGL
Weather: PRFG  (partial fog)

METAR text: OITL 211252Z 07019KT 8000 2500SE PRFG BKN006 BKN025 02/00 Q1015
Conditions at: OITL (ARDABIL , IR) observed 1252 UTC 21 April 2019
Temperature: 2.0°C (36°F)
Dewpoint: 0.0°C (32°F) [RH = 87%]
Pressure (altimeter): 29.97 inches Hg (1015.0 mb)
Winds: from the ENE (70 degrees) at 22 MPH (19 knots; 9.8 m/s)
Visibility: 5 miles ( 8 km)
Ceiling: 600 feet AGL
Clouds: broken clouds at 600 feet AGL
broken clouds at 2500 feet AGL
Weather: PRFG  (partial fog)

METAR text: OITL 211230Z 07019KT 9999 4000SE PRFG SCT007 BKN030 03/01 Q1015
Conditions at: OITL (ARDABIL , IR) observed 1230 UTC 21 April 2019
Temperature: 3.0°C (37°F)
Dewpoint: 1.0°C (34°F) [RH = 87%]
Pressure (altimeter): 29.97 inches Hg (1015.0 mb)
Winds: from the ENE (70 degrees) at 22 MPH (19 knots; 9.8 m/s)
Visibility: 6 or more miles (10+ km)
Ceiling: 3000 feet AGL
Clouds: scattered clouds at 700 feet AGL
broken clouds at 3000 feet AGL
Weather: PRFG  (partial fog)

METAR text: OITL 211200Z 06016KT 9999 3000SE PRFG SCT007 BKN030 03/01 Q1015
Conditions at: OITL (ARDABIL , IR) observed 1200 UTC 21 April 2019
Temperature: 3.0°C (37°F)
Dewpoint: 1.0°C (34°F) [RH = 87%]
Pressure (altimeter): 29.97 inches Hg (1015.0 mb)
Winds: from the ENE (60 degrees) at 18 MPH (16 knots; 8.2 m/s)
Visibility: 6 or more miles (10+ km)
Ceiling: 3000 feet AGL
Clouds: scattered clouds at 700 feet AGL
broken clouds at 3000 feet AGL
Weather: PRFG  (partial fog)

METAR text: OITL 211151Z 06016KT 9999 3000SE PRFG SCT007 BKN030 03/01 Q1015
Conditions at: OITL (ARDABIL , IR) observed 1151 UTC 21 April 2019
Temperature: 3.0°C (37°F)
Dewpoint: 1.0°C (34°F) [RH = 87%]
Pressure (altimeter): 29.97 inches Hg (1015.0 mb)
Winds: from the ENE (60 degrees) at 18 MPH (16 knots; 8.2 m/s)
Visibility: 6 or more miles (10+ km)
Ceiling: 3000 feet AGL
Clouds: scattered clouds at 700 feet AGL
broken clouds at 3000 feet AGL
Weather: PRFG  (partial fog)

METAR text: OITL 211130Z 07021KT 9999 4000SE PRFG SCT007 BKN030 03/01 Q1015
Conditions at: OITL (ARDABIL , IR) observed 1130 UTC 21 April 2019
Temperature: 3.0°C (37°F)
Dewpoint: 1.0°C (34°F) [RH = 87%]
Pressure (altimeter): 29.97 inches Hg (1015.0 mb)
Winds: from the ENE (70 degrees) at 24 MPH (21 knots; 10.8 m/s)
Visibility: 6 or more miles (10+ km)
Ceiling: 3000 feet AGL
Clouds: scattered clouds at 700 feet AGL
broken clouds at 3000 feet AGL
Weather: PRFG  (partial fog)

METAR text: OITL 211100Z 06019KT 9999 VCFG SCT007 BKN035 04/01 Q1015
Conditions at: OITL (ARDABIL , IR) observed 1100 UTC 21 April 2019
Temperature: 4.0°C (39°F)
Dewpoint: 1.0°C (34°F) [RH = 81%]
Pressure (altimeter): 29.97 inches Hg (1015.0 mb)
Winds: from the ENE (60 degrees) at 22 MPH (19 knots; 9.8 m/s)
Visibility: 6 or more miles (10+ km)
Ceiling: 3500 feet AGL
Clouds: scattered clouds at 700 feet AGL
broken clouds at 3500 feet AGL
Weather: VCFG  (fog in vicinity)

METAR text: OITL 211051Z 06019KT 9999 VCFG SCT007 BKN035 04/01 Q1015
Conditions at: OITL (ARDABIL , IR) observed 1051 UTC 21 April 2019
Temperature: 4.0°C (39°F)
Dewpoint: 1.0°C (34°F) [RH = 81%]
Pressure (altimeter): 29.97 inches Hg (1015.0 mb)
Winds: from the ENE (60 degrees) at 22 MPH (19 knots; 9.8 m/s)
Visibility: 6 or more miles (10+ km)
Ceiling: 3500 feet AGL
Clouds: scattered clouds at 700 feet AGL
broken clouds at 3500 feet AGL
Weather: VCFG  (fog in vicinity)

METAR text: OITL 211000Z 06016G27KT 9999 VCFG SCT007 BKN035 04/01 Q1015
Conditions at: OITL (ARDABIL , IR) observed 1000 UTC 21 April 2019
Temperature: 4.0°C (39°F)
Dewpoint: 1.0°C (34°F) [RH = 81%]
Pressure (altimeter): 29.97 inches Hg (1015.0 mb)
Winds: from the ENE (60 degrees) at 18 MPH (16 knots; 8.2 m/s)
gusting to 31 MPH (27 knots; 13.9 m/s)
Visibility: 6 or more miles (10+ km)
Ceiling: 3500 feet AGL
Clouds: scattered clouds at 700 feet AGL
broken clouds at 3500 feet AGL
Weather: VCFG  (fog in vicinity)

METAR text: OITL 210952Z 06016G27KT 9999 VCFG SCT007 BKN035 04/01 Q1015
Conditions at: OITL (ARDABIL , IR) observed 0952 UTC 21 April 2019
Temperature: 4.0°C (39°F)
Dewpoint: 1.0°C (34°F) [RH = 81%]
Pressure (altimeter): 29.97 inches Hg (1015.0 mb)
Winds: from the ENE (60 degrees) at 18 MPH (16 knots; 8.2 m/s)
gusting to 31 MPH (27 knots; 13.9 m/s)
Visibility: 6 or more miles (10+ km)
Ceiling: 3500 feet AGL
Clouds: scattered clouds at 700 feet AGL
broken clouds at 3500 feet AGL
Weather: VCFG  (fog in vicinity)

METAR text: OITL 210900Z 09016KT 9999 VCFG SCT007 OVC030 03/01 Q1016
Conditions at: OITL (ARDABIL , IR) observed 0900 UTC 21 April 2019
Temperature: 3.0°C (37°F)
Dewpoint: 1.0°C (34°F) [RH = 87%]
Pressure (altimeter): 30.00 inches Hg (1016.0 mb)
Winds: from the E (90 degrees) at 18 MPH (16 knots; 8.2 m/s)
Visibility: 6 or more miles (10+ km)
Ceiling: 3000 feet AGL
Clouds: scattered clouds at 700 feet AGL
overcast cloud deck at 3000 feet AGL
Weather: VCFG  (fog in vicinity)

METAR text: OITL 210851Z 09016KT 9999 VCFG SCT007 OVC030 03/01 Q1016
Conditions at: OITL (ARDABIL , IR) observed 0851 UTC 21 April 2019
Temperature: 3.0°C (37°F)
Dewpoint: 1.0°C (34°F) [RH = 87%]
Pressure (altimeter): 30.00 inches Hg (1016.0 mb)
Winds: from the E (90 degrees) at 18 MPH (16 knots; 8.2 m/s)
Visibility: 6 or more miles (10+ km)
Ceiling: 3000 feet AGL
Clouds: scattered clouds at 700 feet AGL
overcast cloud deck at 3000 feet AGL
Weather: VCFG  (fog in vicinity)

METAR text: OITL 210800Z 07014KT 9999 VCFG SCT007 OVC030 03/01 Q1016
Conditions at: OITL (ARDABIL , IR) observed 0800 UTC 21 April 2019
Temperature: 3.0°C (37°F)
Dewpoint: 1.0°C (34°F) [RH = 87%]
Pressure (altimeter): 30.00 inches Hg (1016.0 mb)
Winds: from the ENE (70 degrees) at 16 MPH (14 knots; 7.2 m/s)
Visibility: 6 or more miles (10+ km)
Ceiling: 3000 feet AGL
Clouds: scattered clouds at 700 feet AGL
overcast cloud deck at 3000 feet AGL
Weather: VCFG  (fog in vicinity)

METAR text: OITL 210752Z 07014KT 9999 VCFG SCT007 OVC030 03/01 Q1016
Conditions at: OITL (ARDABIL , IR) observed 0752 UTC 21 April 2019
Temperature: 3.0°C (37°F)
Dewpoint: 1.0°C (34°F) [RH = 87%]
Pressure (altimeter): 30.00 inches Hg (1016.0 mb)
Winds: from the ENE (70 degrees) at 16 MPH (14 knots; 7.2 m/s)
Visibility: 6 or more miles (10+ km)
Ceiling: 3000 feet AGL
Clouds: scattered clouds at 700 feet AGL
overcast cloud deck at 3000 feet AGL
Weather: VCFG  (fog in vicinity)

METAR text: OITL 210730Z 07014KT 9999 VCFG SCT007 BKN030 02/01 Q1016
Conditions at: OITL (ARDABIL , IR) observed 0730 UTC 21 April 2019
Temperature: 2.0°C (36°F)
Dewpoint: 1.0°C (34°F) [RH = 93%]
Pressure (altimeter): 30.00 inches Hg (1016.0 mb)
Winds: from the ENE (70 degrees) at 16 MPH (14 knots; 7.2 m/s)
Visibility: 6 or more miles (10+ km)
Ceiling: 3000 feet AGL
Clouds: scattered clouds at 700 feet AGL
broken clouds at 3000 feet AGL
Weather: VCFG  (fog in vicinity)

METAR text: OITL 210700Z 07016KT 9999 VCFG SCT007 BKN030 01/M00 Q1017
Conditions at: OITL (ARDABIL , IR) observed 0700 UTC 21 April 2019
Temperature: 1.0°C (34°F)
Dewpoint: 0.0°C (32°F) [RH = 93%]
Pressure (altimeter): 30.03 inches Hg (1017.0 mb)
Winds: from the ENE (70 degrees) at 18 MPH (16 knots; 8.2 m/s)
Visibility: 6 or more miles (10+ km)
Ceiling: 3000 feet AGL
Clouds: scattered clouds at 700 feet AGL
broken clouds at 3000 feet AGL
Weather: VCFG  (fog in vicinity)

METAR text: OITL 210652Z 07016KT 9999 VCFG SCT007 BKN030 01/M00 Q1017
Conditions at: OITL (ARDABIL , IR) observed 0652 UTC 21 April 2019
Temperature: 1.0°C (34°F)
Dewpoint: 0.0°C (32°F) [RH = 93%]
Pressure (altimeter): 30.03 inches Hg (1017.0 mb)
Winds: from the ENE (70 degrees) at 18 MPH (16 knots; 8.2 m/s)
Visibility: 6 or more miles (10+ km)
Ceiling: 3000 feet AGL
Clouds: scattered clouds at 700 feet AGL
broken clouds at 3000 feet AGL
Weather: VCFG  (fog in vicinity)

METAR text: OITL 210630Z 08016KT 9000 VCFG SCT007 BKN030 01/M01 Q1016
Conditions at: OITL (ARDABIL , IR) observed 0630 UTC 21 April 2019
Temperature: 1.0°C (34°F)
Dewpoint: -1.0°C (30°F) [RH = 86%]
Pressure (altimeter): 30.00 inches Hg (1016.0 mb)
Winds: from the E (80 degrees) at 18 MPH (16 knots; 8.2 m/s)
Visibility: 6 miles ( 9 km)
Ceiling: 3000 feet AGL
Clouds: scattered clouds at 700 feet AGL
broken clouds at 3000 feet AGL
Weather: VCFG  (fog in vicinity)

METAR text: OITL 210600Z 07017KT 8000 VCFG SCT006 BKN030 01/00 Q1016
Conditions at: OITL (ARDABIL , IR) observed 0600 UTC 21 April 2019
Temperature: 1.0°C (34°F)
Dewpoint: 0.0°C (32°F) [RH = 93%]
Pressure (altimeter): 30.00 inches Hg (1016.0 mb)
Winds: from the ENE (70 degrees) at 20 MPH (17 knots; 8.7 m/s)
Visibility: 5 miles ( 8 km)
Ceiling: 3000 feet AGL
Clouds: scattered clouds at 600 feet AGL
broken clouds at 3000 feet AGL
Weather: VCFG  (fog in vicinity)

METAR text: OITL 210552Z 07017KT 8000 VCFG SCT006 BKN030 01/00 Q1016
Conditions at: OITL (ARDABIL , IR) observed 0552 UTC 21 April 2019
Temperature: 1.0°C (34°F)
Dewpoint: 0.0°C (32°F) [RH = 93%]
Pressure (altimeter): 30.00 inches Hg (1016.0 mb)
Winds: from the ENE (70 degrees) at 20 MPH (17 knots; 8.7 m/s)
Visibility: 5 miles ( 8 km)
Ceiling: 3000 feet AGL
Clouds: scattered clouds at 600 feet AGL
broken clouds at 3000 feet AGL
Weather: VCFG  (fog in vicinity)

METAR text: OITL 210530Z 08016KT 8000 VCFG SCT005 BKN030 00/M01 Q1016
Conditions at: OITL (ARDABIL , IR) observed 0530 UTC 21 April 2019
Temperature: 0.0°C (32°F)
Dewpoint: -1.0°C (30°F) [RH = 93%]
Pressure (altimeter): 30.00 inches Hg (1016.0 mb)
Winds: from the E (80 degrees) at 18 MPH (16 knots; 8.2 m/s)
Visibility: 5 miles ( 8 km)
Ceiling: 3000 feet AGL
Clouds: scattered clouds at 500 feet AGL
broken clouds at 3000 feet AGL
Weather: VCFG  (fog in vicinity)

METAR text: OITL 210500Z 08016KT 7000 -DZ PRFG SCT007 BKN040 M00/M01 Q1016
Conditions at: OITL (ARDABIL , IR) observed 0500 UTC 21 April 2019
Temperature: 0.0°C (32°F)
Dewpoint: -1.0°C (30°F) [RH = 93%]
Pressure (altimeter): 30.00 inches Hg (1016.0 mb)
Winds: from the E (80 degrees) at 18 MPH (16 knots; 8.2 m/s)
Visibility: 4 miles ( 7 km)
Ceiling: 4000 feet AGL
Clouds: scattered clouds at 700 feet AGL
broken clouds at 4000 feet AGL
Weather: -DZ PRFG  (light drizzle, partial fog)

METAR text: OITL 210452Z 08016KT 7000 -DZ PRFG SCT007 BKN040 M00/M01 Q1016
Conditions at: OITL (ARDABIL , IR) observed 0452 UTC 21 April 2019
Temperature: 0.0°C (32°F)
Dewpoint: -1.0°C (30°F) [RH = 93%]
Pressure (altimeter): 30.00 inches Hg (1016.0 mb)
Winds: from the E (80 degrees) at 18 MPH (16 knots; 8.2 m/s)
Visibility: 4 miles ( 7 km)
Ceiling: 4000 feet AGL
Clouds: scattered clouds at 700 feet AGL
broken clouds at 4000 feet AGL
Weather: -DZ PRFG  (light drizzle, partial fog)

METAR text: OITL 210400Z 07014KT 6000 -DZ PRFG SCT007 BKN040 M01/M01 Q1016
Conditions at: OITL (ARDABIL , IR) observed 0400 UTC 21 April 2019
Temperature: -1.0°C (30°F)
Dewpoint: -1.0°C (30°F) [RH = 100%]
Pressure (altimeter): 30.00 inches Hg (1016.0 mb)
Winds: from the ENE (70 degrees) at 16 MPH (14 knots; 7.2 m/s)
Visibility: 4 miles ( 6 km)
Ceiling: 4000 feet AGL
Clouds: scattered clouds at 700 feet AGL
broken clouds at 4000 feet AGL
Weather: -DZ PRFG  (light drizzle, partial fog)

METAR text: OITL 210352Z 07014KT 6000 -DZ PRFG SCT007 BKN040 M01/M01 Q1016
Conditions at: OITL (ARDABIL , IR) observed 0352 UTC 21 April 2019
Temperature: -1.0°C (30°F)
Dewpoint: -1.0°C (30°F) [RH = 100%]
Pressure (altimeter): 30.00 inches Hg (1016.0 mb)
Winds: from the ENE (70 degrees) at 16 MPH (14 knots; 7.2 m/s)
Visibility: 4 miles ( 6 km)
Ceiling: 4000 feet AGL
Clouds: scattered clouds at 700 feet AGL
broken clouds at 4000 feet AGL
Weather: -DZ PRFG  (light drizzle, partial fog)

METAR text: OITL 210300Z 07012KT 6000 SCT007 BKN040 M01/M02 Q1016
Conditions at: OITL (ARDABIL , IR) observed 0300 UTC 21 April 2019
Temperature: -1.0°C (30°F)
Dewpoint: -2.0°C (28°F) [RH = 93%]
Pressure (altimeter): 30.00 inches Hg (1016.0 mb)
Winds: from the ENE (70 degrees) at 14 MPH (12 knots; 6.2 m/s)
Visibility: 4 miles ( 6 km)
Ceiling: 4000 feet AGL
Clouds: scattered clouds at 700 feet AGL
broken clouds at 4000 feet AGL
Weather: no significant weather observed at this time

METAR text: OITL 210252Z 07012KT 6000 SCT007 BKN040 M01/M02 Q1016
Conditions at: OITL (ARDABIL , IR) observed 0252 UTC 21 April 2019
Temperature: -1.0°C (30°F)
Dewpoint: -2.0°C (28°F) [RH = 93%]
Pressure (altimeter): 30.00 inches Hg (1016.0 mb)
Winds: from the ENE (70 degrees) at 14 MPH (12 knots; 6.2 m/s)
Visibility: 4 miles ( 6 km)
Ceiling: 4000 feet AGL
Clouds: scattered clouds at 700 feet AGL
broken clouds at 4000 feet AGL
Weather: no significant weather observed at this time

METAR text: OITL 210153Z 07012KT 6000 PRFG SCT006 BKN035 M01/M02 Q1016
Conditions at: OITL (ARDABIL , IR) observed 0153 UTC 21 April 2019
Temperature: -1.0°C (30°F)
Dewpoint: -2.0°C (28°F) [RH = 93%]
Pressure (altimeter): 30.00 inches Hg (1016.0 mb)
Winds: from the ENE (70 degrees) at 14 MPH (12 knots; 6.2 m/s)
Visibility: 4 miles ( 6 km)
Ceiling: 3500 feet AGL
Clouds: scattered clouds at 600 feet AGL
broken clouds at 3500 feet AGL
Weather: PRFG  (partial fog)

METAR text: OITL 210053Z 07010KT 7000 SCT006 BKN035 M01/M02 Q1015
Conditions at: OITL (ARDABIL , IR) observed 0053 UTC 21 April 2019
Temperature: -1.0°C (30°F)
Dewpoint: -2.0°C (28°F) [RH = 93%]
Pressure (altimeter): 29.97 inches Hg (1015.0 mb)
Winds: from the ENE (70 degrees) at 12 MPH (10 knots; 5.1 m/s)
Visibility: 4 miles ( 7 km)
Ceiling: 3500 feet AGL
Clouds: scattered clouds at 600 feet AGL
broken clouds at 3500 feet AGL
Weather: no significant weather observed at this time

METAR text: OITL 202353Z 06008KT 6000 SCT004 BKN030 M01/M02 Q1015
Conditions at: OITL (ARDABIL , IR) observed 2353 UTC 20 April 2019
Temperature: -1.0°C (30°F)
Dewpoint: -2.0°C (28°F) [RH = 93%]
Pressure (altimeter): 29.97 inches Hg (1015.0 mb)
Winds: from the ENE (60 degrees) at 9 MPH (8 knots; 4.1 m/s)
Visibility: 4 miles ( 6 km)
Ceiling: 3000 feet AGL
Clouds: scattered clouds at 400 feet AGL
broken clouds at 3000 feet AGL
Weather: no significant weather observed at this time

METAR text: OITL 202255Z 07010KT 6000 PRFG BKN004 BKN025 M01/M02 Q1015
Conditions at: OITL (ARDABIL , IR) observed 2255 UTC 20 April 2019
Temperature: -1.0°C (30°F)
Dewpoint: -2.0°C (28°F) [RH = 93%]
Pressure (altimeter): 29.97 inches Hg (1015.0 mb)
Winds: from the ENE (70 degrees) at 12 MPH (10 knots; 5.1 m/s)
Visibility: 4 miles ( 6 km)
Ceiling: 400 feet AGL
Clouds: broken clouds at 400 feet AGL
broken clouds at 2500 feet AGL
Weather: PRFG  (partial fog)

METAR text: OITL 202153Z 07010KT 5000 BR BKN004 BKN025 M01/M02 Q1016
Conditions at: OITL (ARDABIL , IR) observed 2153 UTC 20 April 2019
Temperature: -1.0°C (30°F)
Dewpoint: -2.0°C (28°F) [RH = 93%]
Pressure (altimeter): 30.00 inches Hg (1016.0 mb)
Winds: from the ENE (70 degrees) at 12 MPH (10 knots; 5.1 m/s)
Visibility: 3 miles ( 5 km)
Ceiling: 400 feet AGL
Clouds: broken clouds at 400 feet AGL
broken clouds at 2500 feet AGL
Weather: BR  (mist)

METAR text: OITL 202052Z 07010KT 5000 PRFG BR BKN004 BKN020 M02/M02 Q1016
Conditions at: OITL (ARDABIL , IR) observed 2052 UTC 20 April 2019
Temperature: -2.0°C (28°F)
Dewpoint: -2.0°C (28°F) [RH = 100%]
Pressure (altimeter): 30.00 inches Hg (1016.0 mb)
Winds: from the ENE (70 degrees) at 12 MPH (10 knots; 5.1 m/s)
Visibility: 3 miles ( 5 km)
Ceiling: 400 feet AGL
Clouds: broken clouds at 400 feet AGL
broken clouds at 2000 feet AGL
Weather: PRFG BR  (partial fog, mist)

METAR text: OITL 201950Z 07008KT 1500 BR BKN002 BKN020 M02/M02 Q1017
Conditions at: OITL (ARDABIL , IR) observed 1950 UTC 20 April 2019
Temperature: -2.0°C (28°F)
Dewpoint: -2.0°C (28°F) [RH = 100%]
Pressure (altimeter): 30.03 inches Hg (1017.0 mb)
Winds: from the ENE (70 degrees) at 9 MPH (8 knots; 4.1 m/s)
Visibility: 0.93 miles (1.50 km)
Ceiling: 200 feet AGL
Clouds: broken clouds at 200 feet AGL
broken clouds at 2000 feet AGL
Weather: BR  (mist)

METAR text: OITL 201852Z 07010KT 0700 R15/P2000N R33/1800U FG OVC002 M01/M02 Q1017
Conditions at: OITL (ARDABIL , IR) observed 1852 UTC 20 April 2019
Temperature: -1.0°C (30°F)
Dewpoint: -2.0°C (28°F) [RH = 93%]
Pressure (altimeter): 30.03 inches Hg (1017.0 mb)
Winds: from the ENE (70 degrees) at 12 MPH (10 knots; 5.1 m/s)
Visibility: 0.43 miles (0.69 km)
Ceiling: 200 feet AGL
Clouds: overcast cloud deck at 200 feet AGL
Weather: FG  (fog)

METAR text: OITL 201751Z 07012KT 0200 R15/1800D R33/1300U FG OVC002 M02/M02 Q1017
Conditions at: OITL (ARDABIL , IR) observed 1751 UTC 20 April 2019
Temperature: -2.0°C (28°F)
Dewpoint: -2.0°C (28°F) [RH = 100%]
Pressure (altimeter): 30.03 inches Hg (1017.0 mb)
Winds: from the ENE (70 degrees) at 14 MPH (12 knots; 6.2 m/s)
Visibility: 0.12 miles (0.19 km)
Ceiling: 200 feet AGL
Clouds: overcast cloud deck at 200 feet AGL
Weather: FG  (fog)

METAR text: OITL 201650Z 07012KT 0150 R15/0900D R33/1100D FG VV002 M02/M02 Q1016
Conditions at: OITL (ARDABIL , IR) observed 1650 UTC 20 April 2019
Temperature: -2.0°C (28°F)
Dewpoint: -2.0°C (28°F) [RH = 100%]
Pressure (altimeter): 30.00 inches Hg (1016.0 mb)
Winds: from the ENE (70 degrees) at 14 MPH (12 knots; 6.2 m/s)
Visibility: 0.09 miles (0.14 km)
Ceiling: indefinite ceiling with vertical visibility of 200 feet AGL
Clouds: obscured sky
Weather: FG  (fog)

METAR text: OITL 201553Z 07012KT 0100 FG VV002 M02/M02 Q1015
Conditions at: OITL (ARDABIL , IR) observed 1553 UTC 20 April 2019
Temperature: -2.0°C (28°F)
Dewpoint: -2.0°C (28°F) [RH = 100%]
Pressure (altimeter): 29.97 inches Hg (1015.0 mb)
Winds: from the ENE (70 degrees) at 14 MPH (12 knots; 6.2 m/s)
Visibility: 0.06 miles (0.10 km)
Ceiling: indefinite ceiling with vertical visibility of 200 feet AGL
Clouds: obscured sky
Weather: FG  (fog)